createdAt,value
2022-10-23T00:01:26.703Z,21.42
2022-10-23T00:03:55.672Z,17.65
2022-10-23T00:06:22.822Z,18.73
2022-10-23T00:08:50.065Z,18.27
2022-10-23T00:11:20.884Z,17.98
2022-10-23T00:13:48.969Z,17.33
2022-10-23T00:16:15.790Z,27.67
2022-10-23T00:18:42.718Z,18.38
2022-10-23T00:21:11.877Z,24.25
2022-10-23T00:23:38.660Z,20.13
2022-10-23T00:26:05.505Z,17.65
2022-10-23T00:28:32.156Z,35.90
2022-10-23T00:31:03.191Z,30.23
2022-10-23T00:33:30.082Z,28.52
2022-10-23T00:35:56.757Z,26.00
2022-10-23T00:38:24.086Z,19.27
2022-10-23T00:40:51.584Z,22.88
2022-10-23T00:43:21.616Z,19.42
2022-10-23T00:45:48.377Z,17.30
2022-10-23T00:48:16.176Z,23.88
2022-10-23T00:50:42.967Z,19.77
2022-10-23T00:53:12.600Z,20.17
2022-10-23T00:55:41.375Z,19.48
2022-10-23T00:58:08.034Z,15.95
2022-10-23T01:00:45.726Z,16.90
2022-10-23T01:03:14.566Z,21.23
2022-10-23T01:05:54.189Z,17.35
2022-10-23T01:08:50.559Z,16.52
2022-10-23T01:11:26.843Z,18.45
2022-10-23T01:14:06.480Z,16.25
2022-10-23T01:16:46.301Z,18.42
2022-10-23T01:19:37.460Z,16.77
2022-10-23T01:22:13.596Z,17.58
2022-10-23T01:24:53.749Z,15.90
2022-10-23T01:27:25.210Z,18.52
2022-10-23T01:30:08.935Z,18.75
2022-10-23T01:32:40.390Z,17.95
2022-10-23T01:35:12.248Z,17.63
2022-10-23T01:37:54.438Z,17.52
2022-10-23T01:40:39.202Z,14.25
2022-10-23T01:43:12.665Z,15.40
2022-10-23T01:45:43.729Z,13.90
2022-10-23T01:48:15.783Z,16.58
2022-10-23T01:50:45.495Z,17.42
2022-10-23T01:53:12.265Z,17.10
2022-10-23T02:00:45.643Z,14.00
2022-10-23T02:03:15.934Z,15.10
2022-10-23T02:05:43.516Z,15.35
2022-10-23T02:08:10.963Z,17.83
2022-10-23T02:10:52.990Z,17.52
2022-10-23T02:13:38.465Z,16.33
2022-10-23T02:18:46.249Z,15.27
2022-10-23T02:21:17.150Z,15.90
2022-10-23T02:23:56.791Z,13.30
2022-10-23T02:26:43.701Z,13.57
2022-10-23T02:29:10.351Z,13.65
2022-10-23T02:31:37.145Z,16.80
2022-10-23T02:34:04.056Z,13.77
2022-10-23T02:36:30.805Z,15.27
2022-10-23T02:38:58.217Z,14.82
2022-10-23T02:41:46.750Z,15.32
2022-10-23T02:44:28.754Z,17.95
2022-10-23T02:47:28.086Z,18.38
2022-10-23T02:50:15.885Z,17.73
2022-10-23T02:53:20.592Z,16.80
2022-10-23T02:56:10.747Z,14.65
2022-10-23T02:58:46.801Z,16.52
2022-10-23T03:01:19.971Z,34.63
2022-10-23T03:03:57.992Z,37.08
2022-10-23T03:06:25.234Z,26.50
2022-10-23T03:08:59.318Z,21.15
2022-10-23T03:11:26.510Z,22.50
2022-10-23T03:13:53.175Z,18.40
2022-10-23T03:16:19.851Z,18.45
2022-10-23T03:18:46.492Z,28.95
2022-10-23T03:21:13.413Z,28.77
2022-10-23T03:23:40.106Z,36.35
2022-10-23T03:26:07.192Z,26.13
2022-10-23T03:28:35.470Z,21.75
2022-10-23T03:31:02.850Z,21.30
2022-10-23T03:33:30.861Z,19.02
2022-10-23T03:35:57.531Z,17.05
2022-10-23T03:38:24.268Z,14.07
2022-10-23T03:40:51.054Z,17.98
2022-10-23T03:43:17.748Z,14.23
2022-10-23T03:45:44.417Z,58.30
2022-10-23T03:48:11.068Z,40.70
2022-10-23T03:50:37.820Z,34.22
2022-10-23T03:53:04.488Z,26.17
2022-10-23T03:55:31.551Z,25.45
2022-10-23T03:57:58.390Z,29.40
2022-10-23T04:00:25.285Z,21.52
2022-10-23T04:02:51.949Z,19.40
2022-10-23T04:05:19.131Z,19.00
2022-10-23T04:07:45.821Z,19.75
2022-10-23T04:10:12.439Z,23.58
2022-10-23T04:12:39.233Z,43.58
2022-10-23T04:15:06.458Z,28.45
2022-10-23T04:17:33.242Z,27.10
2022-10-23T04:19:59.917Z,29.90
2022-10-23T04:22:28.423Z,23.90
2022-10-23T04:24:56.276Z,18.50
2022-10-23T04:27:25.802Z,18.30
2022-10-23T04:29:54.385Z,13.15
2022-10-23T04:32:23.514Z,40.90
2022-10-23T04:34:50.642Z,34.35
2022-10-23T04:37:17.593Z,28.63
2022-10-23T04:39:44.248Z,39.92
2022-10-23T04:42:10.874Z,28.55
2022-10-23T04:44:37.502Z,27.95
2022-10-23T04:47:04.151Z,25.85
2022-10-23T04:49:30.947Z,21.92
2022-10-23T04:51:57.628Z,27.48
2022-10-23T04:54:24.266Z,23.40
2022-10-23T04:56:50.900Z,26.42
2022-10-23T04:59:17.623Z,102.90
2022-10-23T05:01:44.312Z,29.48
2022-10-23T05:04:10.982Z,35.03
2022-10-23T05:06:37.679Z,25.73
2022-10-23T05:09:04.367Z,28.35
2022-10-23T05:11:31.063Z,25.13
2022-10-23T05:13:57.959Z,27.55
2022-10-23T05:17:00.161Z,21.70
2022-10-23T05:19:38.836Z,24.30
2022-10-23T05:22:06.436Z,39.90
2022-10-23T05:24:33.171Z,36.33
2022-10-23T05:26:59.862Z,60.97
2022-10-23T05:29:26.542Z,39.08
2022-10-23T05:31:57.396Z,16.67
2022-10-23T05:34:26.958Z,16.75
2022-10-23T05:36:54.295Z,45.15
2022-10-23T05:39:21.193Z,42.13
2022-10-23T05:41:47.998Z,35.83
2022-10-23T05:44:14.651Z,44.83
2022-10-23T05:46:44.551Z,45.97
2022-10-23T05:49:11.291Z,49.10
2022-10-23T05:51:40.177Z,84.30
2022-10-23T05:54:10.636Z,180.55
2022-10-23T05:56:39.173Z,134.85
2022-10-23T05:59:07.758Z,71.05
2022-10-23T06:01:34.847Z,116.18
2022-10-23T06:04:02.044Z,37.78
2022-10-23T06:06:28.780Z,43.30
2022-10-23T06:08:55.608Z,41.60
2022-10-23T06:11:22.822Z,44.88
2022-10-23T06:13:49.627Z,33.28
2022-10-23T06:16:18.846Z,35.58
2022-10-23T06:18:46.326Z,28.73
2022-10-23T06:21:14.406Z,44.72
2022-10-23T06:23:42.442Z,59.45
2022-10-23T06:26:11.072Z,44.78
2022-10-23T06:28:38.337Z,53.75
2022-10-23T06:31:09.879Z,48.55
2022-10-23T06:33:36.765Z,46.47
2022-10-23T06:36:05.484Z,55.17
2022-10-23T06:38:37.373Z,38.88
2022-10-23T06:41:04.827Z,35.40
2022-10-23T06:43:31.470Z,26.80
2022-10-23T06:46:01.783Z,25.10
2022-10-23T06:48:28.458Z,42.40
2022-10-23T06:50:55.929Z,36.60
2022-10-23T06:53:24.891Z,26.85
2022-10-23T06:55:54.595Z,37.83
2022-10-23T06:58:22.449Z,125.85
2022-10-23T07:00:49.192Z,28.77
2022-10-23T07:03:15.889Z,30.42
2022-10-23T07:05:44.893Z,27.50
2022-10-23T07:08:11.734Z,32.15
2022-10-23T07:10:38.450Z,30.48
2022-10-23T07:13:05.103Z,31.55
2022-10-23T07:15:31.793Z,31.08
2022-10-23T07:17:58.434Z,29.48
2022-10-23T07:20:25.122Z,26.92
2022-10-23T07:22:56.020Z,23.48
2022-10-23T07:25:23.911Z,23.55
2022-10-23T07:27:50.782Z,15.02
2022-10-23T07:30:17.817Z,12.30
2022-10-23T07:32:45.203Z,16.02
2022-10-23T07:37:45.032Z,9.70
2022-10-23T07:40:12.323Z,7.28
2022-10-23T07:42:39.089Z,10.40
2022-10-23T07:45:07.570Z,6.53
2022-10-23T07:47:34.353Z,8.00
2022-10-23T07:50:01.154Z,6.75
2022-10-23T07:52:31.965Z,6.00
2022-10-23T07:55:02.285Z,6.60
2022-10-23T07:57:28.981Z,5.25
2022-10-23T07:59:55.661Z,6.57
2022-10-23T08:02:22.399Z,5.68
2022-10-23T08:04:49.831Z,4.40
2022-10-23T08:07:16.430Z,6.80
2022-10-23T08:09:43.311Z,6.50
2022-10-23T08:12:10.445Z,6.65
2022-10-23T08:14:37.126Z,5.97
2022-10-23T08:17:05.360Z,5.57
2022-10-23T08:19:32.466Z,8.48
2022-10-23T08:21:59.079Z,4.25
2022-10-23T08:24:25.737Z,3.80
2022-10-23T08:26:52.856Z,5.07
2022-10-23T08:29:19.559Z,6.47
2022-10-23T08:31:46.320Z,7.70
2022-10-23T08:34:13.693Z,4.75
2022-10-23T08:36:40.487Z,4.07
2022-10-23T08:39:07.531Z,7.30
2022-10-23T08:41:40.694Z,4.78
2022-10-23T08:44:15.654Z,17.70
2022-10-23T08:46:47.487Z,7.45
2022-10-23T08:49:32.543Z,7.20
2022-10-23T08:54:49.745Z,4.65
2022-10-23T08:57:17.873Z,7.35
2022-10-23T08:59:48.835Z,5.65
2022-10-23T09:02:47.009Z,4.75
2022-10-23T09:05:50.995Z,7.53
2022-10-23T09:08:27.274Z,8.32
2022-10-23T09:11:15.677Z,40.03
2022-10-23T09:14:08.841Z,7.55
2022-10-23T09:17:07.851Z,10.00
2022-10-23T09:19:34.785Z,4.43
2022-10-23T09:22:01.713Z,5.35
2022-10-23T09:24:31.792Z,3.88
2022-10-23T09:27:00.632Z,8.43
2022-10-23T09:29:32.854Z,4.85
2022-10-23T09:32:01.949Z,3.70
2022-10-23T09:34:30.886Z,4.97
2022-10-23T09:37:21.413Z,3.40
2022-10-23T09:39:48.912Z,3.67
2022-10-23T09:42:26.233Z,6.75
2022-10-23T09:44:54.768Z,6.07
2022-10-23T09:47:24.897Z,5.80
2022-10-23T09:49:54.241Z,6.35
2022-10-23T09:52:39.469Z,5.50
2022-10-23T09:55:35.399Z,5.43
2022-10-23T09:58:02.029Z,3.42
2022-10-23T10:00:28.810Z,5.88
2022-10-23T10:02:55.429Z,4.90
2022-10-23T10:05:42.526Z,2.72
2022-10-23T10:08:09.143Z,6.05
2022-10-23T10:10:45.640Z,5.70
2022-10-23T10:13:32.446Z,8.38
2022-10-23T10:16:05.386Z,6.05
2022-10-23T10:18:50.827Z,5.32
2022-10-23T10:21:48.281Z,6.95
2022-10-23T10:24:25.393Z,5.95
2022-10-23T10:27:19.860Z,4.30
2022-10-23T10:30:10.493Z,5.47
2022-10-23T10:33:10.892Z,4.15
2022-10-23T10:35:50.728Z,7.70
2022-10-23T10:38:38.290Z,4.07
2022-10-23T10:41:26.196Z,5.47
2022-10-23T10:44:10.915Z,4.15
2022-10-23T10:46:58.828Z,5.80
2022-10-23T10:49:34.470Z,4.75
2022-10-23T10:52:22.812Z,3.88
2022-10-23T10:55:19.472Z,5.88
2022-10-23T10:57:54.944Z,4.75
2022-10-23T11:00:24.202Z,4.32
2022-10-23T11:02:57.734Z,4.68
2022-10-23T11:05:35.306Z,3.67
2022-10-23T11:08:05.886Z,2.75
2022-10-23T11:10:33.662Z,5.35
2022-10-23T11:13:00.607Z,3.85
2022-10-23T11:15:42.870Z,5.95
2022-10-23T11:18:26.545Z,4.65
2022-10-23T11:21:12.026Z,3.55
2022-10-23T11:27:39.432Z,5.55
2022-10-23T11:30:33.211Z,2.85
2022-10-23T11:33:24.727Z,5.32
2022-10-23T11:36:01.837Z,3.78
2022-10-23T11:38:32.155Z,4.82
2022-10-23T11:41:03.869Z,3.75
2022-10-23T11:43:46.368Z,3.13
2022-10-23T11:46:31.029Z,2.33
2022-10-23T11:48:58.359Z,2.72
2022-10-23T11:51:36.953Z,3.47
2022-10-23T11:54:16.182Z,4.43
2022-10-23T11:57:13.895Z,4.40
2022-10-23T11:59:49.856Z,3.90
2022-10-23T12:02:19.355Z,5.18
2022-10-23T12:04:49.327Z,3.85
2022-10-23T12:07:30.072Z,2.90
2022-10-23T12:10:17.591Z,3.65
2022-10-23T12:12:59.835Z,5.55
2022-10-23T12:15:27.742Z,3.08
2022-10-23T12:18:06.975Z,3.90
2022-10-23T12:20:55.163Z,3.78
2022-10-23T12:23:48.223Z,3.20
2022-10-23T12:26:42.538Z,4.60
2022-10-23T12:29:30.656Z,5.85
2022-10-23T12:32:38.823Z,5.07
2022-10-23T12:35:28.816Z,3.17
2022-10-23T12:38:17.938Z,3.70
2022-10-23T12:40:46.350Z,4.90
2022-10-23T12:43:29.481Z,3.60
2022-10-23T12:46:00.144Z,3.45
2022-10-23T12:48:27.040Z,4.43
2022-10-23T12:50:56.328Z,3.55
2022-10-23T12:53:24.302Z,4.22
2022-10-23T12:56:03.267Z,3.33
2022-10-23T12:58:32.976Z,5.53
2022-10-23T13:01:04.315Z,4.93
2022-10-23T13:03:33.270Z,4.25
2022-10-23T13:06:04.618Z,2.47
2022-10-23T13:08:42.278Z,3.85
2022-10-23T13:11:15.587Z,5.90
2022-10-23T13:13:42.493Z,4.05
2022-10-23T13:16:23.752Z,3.25
2022-10-23T13:18:51.007Z,3.85
2022-10-23T13:21:25.138Z,3.05
2022-10-23T13:23:53.987Z,4.20
2022-10-23T13:26:30.490Z,2.85
2022-10-23T13:28:57.754Z,4.80
2022-10-23T13:31:26.229Z,9.30
2022-10-23T13:33:59.160Z,3.70
2022-10-23T13:36:27.992Z,2.90
2022-10-23T13:39:10.030Z,4.45
2022-10-23T13:41:46.894Z,3.03
2022-10-23T13:44:16.991Z,4.65
2022-10-23T13:46:44.446Z,5.18
2022-10-23T13:49:11.134Z,5.22
2022-10-23T13:51:44.989Z,3.63
2022-10-23T13:56:54.446Z,3.50
2022-10-23T13:59:21.857Z,3.13
2022-10-23T14:01:50.307Z,3.35
2022-10-23T14:04:18.599Z,4.68
2022-10-23T14:06:45.338Z,5.07
2022-10-23T14:09:14.660Z,4.93
2022-10-23T14:11:41.911Z,3.92
2022-10-23T14:14:09.094Z,5.82
2022-10-23T14:16:35.849Z,5.32
2022-10-23T14:19:02.683Z,4.05
2022-10-23T14:21:29.330Z,5.15
2022-10-23T14:23:56.109Z,6.30
2022-10-23T14:26:25.214Z,5.03
2022-10-23T14:28:53.891Z,5.20
2022-10-23T14:31:20.950Z,6.25
2022-10-23T14:33:52.340Z,4.38
2022-10-23T14:38:55.760Z,5.80
2022-10-23T14:41:22.928Z,6.28
2022-10-23T14:43:49.582Z,4.82
2022-10-23T14:46:19.024Z,8.05
2022-10-23T14:48:47.181Z,5.47
2022-10-23T14:51:18.176Z,8.43
2022-10-23T14:53:45.173Z,7.70
2022-10-23T14:56:11.846Z,5.47
2022-10-23T14:58:38.518Z,6.75
2022-10-23T15:01:05.597Z,7.68
2022-10-23T15:03:32.298Z,8.30
2022-10-23T15:05:59.129Z,12.32
2022-10-23T15:08:26.035Z,11.10
2022-10-23T15:11:07.751Z,13.43
2022-10-23T15:13:37.117Z,17.45
2022-10-23T15:16:09.519Z,13.52
2022-10-23T15:21:09.919Z,14.25
2022-10-23T15:23:39.519Z,12.95
2022-10-23T15:26:09.791Z,17.83
2022-10-23T15:28:36.454Z,15.20
2022-10-23T15:31:03.755Z,14.45
2022-10-23T15:33:30.552Z,14.57
2022-10-23T15:35:57.279Z,14.95
2022-10-23T15:38:24.666Z,15.65
2022-10-23T15:40:58.591Z,17.65
2022-10-23T15:43:25.330Z,16.10
2022-10-23T15:45:51.959Z,15.40
2022-10-23T15:48:19.416Z,15.38
2022-10-23T15:50:46.054Z,13.73
2022-10-23T15:53:12.923Z,16.42
2022-10-23T15:55:39.593Z,42.20
2022-10-23T15:58:06.428Z,36.88
2022-10-23T16:00:36.109Z,133.63
2022-10-23T16:03:02.894Z,64.68
2022-10-23T16:05:29.608Z,106.88
2022-10-23T16:07:56.331Z,66.53
2022-10-23T16:10:23.559Z,70.70
2022-10-23T16:12:50.291Z,39.35
2022-10-23T16:15:17.159Z,43.28
2022-10-23T16:17:44.003Z,60.95
2022-10-23T16:20:11.530Z,69.25
2022-10-23T16:22:41.339Z,80.93
2022-10-23T16:25:10.812Z,80.25
2022-10-23T16:27:37.564Z,55.20
2022-10-23T16:30:06.394Z,83.35
2022-10-23T16:32:33.234Z,229.20
2022-10-23T16:34:59.892Z,274.58
2022-10-23T16:37:26.596Z,122.97
2022-10-23T16:39:53.249Z,106.25
2022-10-23T16:42:19.891Z,184.77
2022-10-23T16:44:46.744Z,206.55
2022-10-23T16:47:13.427Z,241.82
2022-10-23T16:49:40.129Z,164.30
2022-10-23T16:52:06.795Z,149.70
2022-10-23T16:54:33.602Z,55.47
2022-10-23T16:57:00.274Z,18.45
2022-10-23T16:59:26.963Z,23.45
2022-10-23T17:01:54.231Z,31.52
2022-10-23T17:04:21.032Z,237.05
2022-10-23T17:06:47.911Z,125.50
2022-10-23T17:09:14.791Z,57.63
2022-10-23T17:11:44.197Z,38.00
2022-10-23T17:14:17.599Z,35.88
2022-10-23T17:16:50.302Z,42.90
2022-10-23T17:19:47.237Z,33.13
2022-10-23T17:22:10.694Z,34.05
2022-10-23T17:24:39.313Z,33.65
2022-10-23T17:27:06.594Z,40.30
2022-10-23T17:29:33.315Z,49.85
2022-10-23T17:32:00.045Z,73.55
2022-10-23T17:34:26.865Z,87.32
2022-10-23T17:36:55.127Z,83.13
2022-10-23T17:39:25.272Z,88.47
2022-10-23T17:41:52.771Z,130.70
2022-10-23T17:44:19.555Z,89.28
2022-10-23T17:46:46.624Z,73.20
2022-10-23T17:49:13.441Z,106.30
2022-10-23T17:51:40.227Z,52.47
2022-10-23T17:54:10.723Z,52.30
2022-10-23T17:56:38.426Z,51.30
2022-10-23T17:59:11.719Z,59.38
2022-10-23T18:01:38.997Z,51.42
2022-10-23T18:04:07.532Z,74.45
2022-10-23T18:06:40.344Z,74.68
2022-10-23T18:09:07.643Z,90.22
2022-10-23T18:11:37.087Z,49.33
2022-10-23T18:14:05.535Z,37.30
2022-10-23T18:16:34.084Z,21.60
2022-10-23T18:19:01.631Z,36.42
2022-10-23T18:21:29.516Z,21.98
2022-10-23T18:23:58.225Z,17.63
2022-10-23T18:26:27.400Z,24.48
2022-10-23T18:28:57.408Z,44.75
2022-10-23T18:31:27.097Z,29.10
2022-10-23T18:33:59.706Z,19.30
2022-10-23T18:36:28.698Z,25.42
2022-10-23T18:41:23.745Z,23.17
2022-10-23T18:43:54.664Z,23.17
2022-10-23T18:46:22.431Z,25.75
2022-10-23T18:48:50.918Z,22.48
2022-10-23T18:51:26.489Z,30.48
2022-10-23T18:53:53.970Z,21.20
2022-10-23T18:56:23.591Z,10.18
2022-10-23T18:58:54.088Z,9.85
2022-10-23T19:01:22.623Z,12.07
2022-10-23T19:03:50.609Z,11.60
2022-10-23T19:06:17.871Z,11.85
2022-10-23T19:08:45.676Z,16.92
2022-10-23T19:11:14.600Z,25.00
2022-10-23T19:13:42.038Z,50.03
2022-10-23T19:16:29.134Z,22.60
2022-10-23T19:19:00.546Z,12.50
2022-10-23T19:21:31.719Z,15.65
2022-10-23T19:24:05.072Z,14.80
2022-10-23T19:26:34.366Z,12.73
2022-10-23T19:29:01.749Z,18.38
2022-10-23T19:31:28.664Z,35.72
2022-10-23T19:33:56.021Z,37.85
2022-10-23T19:36:23.695Z,36.35
2022-10-23T19:38:50.993Z,30.17
2022-10-23T19:41:18.899Z,21.27
2022-10-23T19:43:45.744Z,21.15
2022-10-23T19:46:12.616Z,20.65
2022-10-23T19:48:44.569Z,15.40
2022-10-23T19:51:13.027Z,11.27
2022-10-23T19:53:41.389Z,18.38
2022-10-23T19:56:10.889Z,20.40
2022-10-23T19:58:38.680Z,13.38
2022-10-23T20:01:14.368Z,16.58
2022-10-23T20:03:42.336Z,15.00
2022-10-23T20:06:11.273Z,16.23
2022-10-23T20:08:38.329Z,22.73
2022-10-23T20:11:05.414Z,21.20
2022-10-23T20:13:32.228Z,19.58
2022-10-23T20:15:59.175Z,13.30
2022-10-23T20:18:26.153Z,11.38
2022-10-23T20:20:53.735Z,13.20
2022-10-23T20:23:20.529Z,13.70
2022-10-23T20:25:47.276Z,13.70
2022-10-23T20:28:15.219Z,10.95
2022-10-23T20:30:42.696Z,10.93
2022-10-23T20:33:09.484Z,13.07
2022-10-23T20:35:43.246Z,12.57
2022-10-23T20:38:10.075Z,14.52
2022-10-23T20:40:36.791Z,15.65
2022-10-23T20:43:03.875Z,14.88
2022-10-23T20:45:30.581Z,14.88
2022-10-23T20:47:57.524Z,24.13
2022-10-23T20:50:24.227Z,61.72
2022-10-23T20:52:51.421Z,37.78
2022-10-23T20:55:19.101Z,12.55
2022-10-23T20:57:46.576Z,17.45
2022-10-23T21:00:13.777Z,13.40
2022-10-23T21:02:40.496Z,16.75
2022-10-23T21:05:07.862Z,16.10
2022-10-23T21:07:34.611Z,11.68
2022-10-23T21:10:03.588Z,10.57
2022-10-23T21:12:30.331Z,24.10
2022-10-23T21:14:56.957Z,11.43
2022-10-23T21:17:23.674Z,9.43
2022-10-23T21:19:50.321Z,10.40
2022-10-23T21:22:17.191Z,11.52
2022-10-23T21:24:43.810Z,12.70
2022-10-23T21:27:10.532Z,13.88
2022-10-23T21:29:37.147Z,13.52
2022-10-23T21:32:04.025Z,18.73
2022-10-23T21:34:30.905Z,17.98
2022-10-23T21:37:12.288Z,12.23
2022-10-23T21:39:39.659Z,12.93
2022-10-23T21:42:06.675Z,14.65
2022-10-23T21:44:33.484Z,16.27
2022-10-23T21:47:00.114Z,11.52
2022-10-23T21:49:26.956Z,14.27
2022-10-23T21:51:55.074Z,11.07
2022-10-23T21:54:22.014Z,12.07
2022-10-23T21:56:50.889Z,12.45
2022-10-23T21:59:20.803Z,12.70
2022-10-23T22:01:48.848Z,11.15
2022-10-23T22:04:20.851Z,13.57
2022-10-23T22:06:49.605Z,15.73
2022-10-23T22:09:19.926Z,22.25
2022-10-23T22:11:48.247Z,22.90
2022-10-23T22:14:14.997Z,19.98
2022-10-23T22:16:42.226Z,24.23
2022-10-23T22:19:11.770Z,20.77
2022-10-23T22:21:40.091Z,16.02
2022-10-23T22:24:07.194Z,19.38
2022-10-23T22:26:39.791Z,21.08
2022-10-23T22:29:09.656Z,15.10
2022-10-23T22:31:38.117Z,13.23
2022-10-23T22:34:18.691Z,13.15
2022-10-23T22:36:55.190Z,14.13
2022-10-23T22:39:22.915Z,15.52
2022-10-23T22:41:50.485Z,9.65
2022-10-23T22:44:17.302Z,10.45
2022-10-23T22:46:44.630Z,7.95
2022-10-23T22:49:11.535Z,12.65
2022-10-23T22:51:39.262Z,10.65
2022-10-23T22:54:06.272Z,12.88
2022-10-23T22:56:33.254Z,13.73
2022-10-23T22:58:59.926Z,15.65
2022-10-23T23:01:36.464Z,13.65
2022-10-23T23:04:13.888Z,11.68
2022-10-23T23:06:51.078Z,16.13
2022-10-23T23:09:18.791Z,12.13
2022-10-23T23:11:51.506Z,11.98
2022-10-23T23:14:22.957Z,10.73
2022-10-23T23:16:51.550Z,8.45
2022-10-23T23:19:18.246Z,10.10
2022-10-23T23:21:44.922Z,12.45
2022-10-23T23:24:12.287Z,13.07
2022-10-23T23:26:39.234Z,12.50
2022-10-23T23:29:05.955Z,11.18
2022-10-23T23:31:32.676Z,19.40
2022-10-23T23:33:59.561Z,10.80
2022-10-23T23:36:27.612Z,10.95
2022-10-23T23:38:56.830Z,13.70
2022-10-23T23:41:24.470Z,12.35
2022-10-23T23:43:54.169Z,12.70
2022-10-23T23:46:21.061Z,8.30
2022-10-23T23:48:49.469Z,7.13
2022-10-23T23:51:21.793Z,8.13
2022-10-23T23:53:51.414Z,9.40
2022-10-23T23:56:18.859Z,9.65
2022-10-23T23:58:45.563Z,10.40
